createdAt,value
2023-09-08T00:02:45.273Z,22.40
2023-09-08T00:14:15.847Z,22.30
2023-09-08T00:25:41.690Z,22.20
2023-09-08T00:31:13.417Z,22.10
2023-09-08T00:42:09.888Z,22.10
2023-09-08T00:48:16.861Z,22.00
2023-09-08T00:54:09.236Z,22.00
2023-09-08T01:00:11.252Z,21.90
2023-09-08T01:16:59.233Z,21.70
2023-09-08T01:22:48.111Z,21.70
2023-09-08T01:29:49.174Z,21.60
2023-09-08T01:35:39.903Z,21.50
2023-09-08T01:40:35.186Z,21.50
2023-09-08T01:46:36.440Z,21.40
2023-09-08T02:04:09.649Z,21.10
2023-09-08T02:09:45.719Z,21.10
2023-09-08T02:15:38.295Z,21.00
2023-09-08T02:27:12.809Z,20.90
2023-09-08T02:32:28.641Z,20.80
2023-09-08T05:06:08.132Z,19.30
2023-09-08T05:11:10.175Z,19.30
2023-09-08T05:16:12.903Z,19.30
2023-09-08T05:21:15.378Z,19.40
2023-09-08T05:26:17.274Z,19.30
2023-09-08T05:31:19.134Z,19.30
2023-09-08T05:36:21.069Z,19.40
2023-09-08T05:41:23.106Z,19.40
2023-09-08T05:46:25.451Z,19.40
2023-09-08T05:51:27.510Z,19.40
2023-09-08T05:56:35.158Z,19.40
2023-09-08T06:01:37.569Z,19.50
2023-09-08T06:06:39.559Z,19.50
2023-09-08T06:11:41.694Z,19.50
2023-09-08T06:16:43.623Z,19.60
2023-09-08T06:21:45.515Z,19.60
2023-09-08T06:26:47.527Z,19.70
2023-09-08T06:31:49.555Z,19.80
2023-09-08T06:36:51.467Z,19.90
2023-09-08T06:41:53.394Z,19.90
2023-09-08T06:46:55.374Z,20.00
2023-09-08T06:51:57.243Z,20.10
2023-09-08T06:56:59.216Z,20.20
2023-09-08T07:02:01.758Z,20.40
2023-09-08T07:07:08.371Z,20.40
2023-09-08T07:12:10.498Z,20.60
2023-09-08T07:17:12.586Z,20.70
2023-09-08T07:22:14.508Z,20.80
2023-09-08T07:27:16.983Z,21.00
2023-09-08T07:32:19.703Z,21.10
2023-09-08T07:37:25.350Z,21.30
2023-09-08T07:42:28.411Z,21.40
2023-09-08T07:47:31.803Z,21.60
2023-09-08T07:52:40.101Z,21.70
2023-09-08T07:57:47.170Z,21.90
2023-09-08T08:02:51.262Z,22.10
2023-09-08T08:07:53.881Z,22.40
2023-09-08T08:12:58.355Z,22.50
2023-09-08T08:18:00.463Z,22.70
2023-09-08T08:23:06.431Z,22.90
2023-09-08T08:28:08.998Z,23.00
2023-09-08T08:33:12.089Z,23.20
2023-09-08T08:38:14.170Z,23.50
2023-09-08T08:43:16.199Z,23.70
2023-09-08T08:48:19.641Z,23.90
2023-09-08T08:53:22.404Z,24.10
2023-09-08T08:58:27.737Z,24.40
2023-09-08T09:03:30.734Z,24.60
2023-09-08T09:08:36.307Z,24.80
2023-09-08T09:13:41.554Z,25.00
2023-09-08T09:18:56.882Z,25.20
2023-09-08T09:23:59.085Z,25.40
2023-09-08T09:29:02.355Z,25.70
2023-09-08T09:34:06.785Z,25.90
2023-09-08T09:39:38.714Z,26.10
2023-09-08T09:44:42.256Z,26.40
2023-09-08T09:49:56.769Z,26.60
2023-09-08T09:55:04.197Z,26.80
2023-09-08T10:00:07.377Z,27.00
2023-09-08T10:05:15.289Z,27.30
2023-09-08T10:10:18.416Z,27.60
2023-09-08T10:15:25.184Z,27.90
2023-09-08T10:20:32.566Z,28.20
2023-09-08T10:25:39.927Z,28.60
2023-09-08T10:30:42.910Z,29.00
2023-09-08T10:35:45.171Z,29.40
2023-09-08T10:40:47.087Z,29.80
2023-09-08T10:45:49.163Z,30.10
2023-09-08T10:50:51.095Z,30.60
2023-09-08T10:56:10.758Z,31.20
2023-09-08T11:01:27.616Z,31.70
2023-09-08T11:06:31.699Z,32.20
2023-09-08T11:11:34.541Z,32.60
2023-09-08T11:16:36.741Z,33.10
2023-09-08T11:21:42.189Z,33.60
2023-09-08T11:26:48.032Z,34.10
2023-09-08T11:31:53.571Z,34.20
2023-09-08T11:36:55.755Z,34.70
2023-09-08T11:42:02.061Z,35.10
2023-09-08T11:47:05.049Z,35.40
2023-09-08T11:52:10.397Z,35.80
2023-09-08T11:57:13.219Z,36.40
2023-09-08T12:02:15.760Z,36.70
2023-09-08T12:07:20.130Z,36.80
2023-09-08T12:12:22.251Z,36.90
2023-09-08T12:17:26.330Z,37.30
2023-09-08T12:22:28.818Z,37.90
2023-09-08T12:27:30.707Z,38.40
2023-09-08T12:32:33.595Z,38.60
2023-09-08T12:37:36.259Z,38.40
2023-09-08T12:42:41.413Z,38.30
2023-09-08T12:47:51.059Z,38.60
2023-09-08T12:52:53.159Z,38.90
2023-09-08T12:57:56.222Z,39.10
2023-09-08T13:02:58.118Z,39.20
2023-09-08T13:08:00.066Z,39.00
2023-09-08T13:13:02.060Z,39.00
2023-09-08T13:18:04.254Z,39.20
2023-09-08T13:23:08.012Z,39.30
2023-09-08T13:28:09.964Z,39.20
2023-09-08T13:33:11.907Z,39.10
2023-09-08T13:38:13.784Z,39.40
2023-09-08T13:43:16.395Z,39.60
2023-09-08T13:48:19.345Z,39.60
2023-09-08T13:53:21.858Z,39.90
2023-09-08T13:58:26.531Z,40.00
2023-09-08T14:03:30.650Z,40.10
2023-09-08T14:13:38.645Z,40.00
2023-09-08T14:18:40.957Z,39.80
2023-09-08T14:23:42.870Z,39.90
2023-09-08T14:28:44.730Z,40.00
2023-09-08T14:33:46.591Z,40.20
2023-09-08T14:38:48.536Z,40.30
2023-09-08T14:43:50.399Z,39.90
2023-09-08T14:48:52.434Z,39.60
2023-09-08T14:53:54.429Z,39.50
2023-09-08T14:58:56.333Z,39.50
2023-09-08T15:03:58.333Z,39.50
2023-09-08T15:09:00.246Z,39.50
2023-09-08T15:14:02.180Z,39.50
2023-09-08T15:19:04.171Z,39.60
2023-09-08T15:24:06.634Z,39.60
2023-09-08T15:29:10.337Z,39.30
2023-09-08T15:34:13.498Z,39.20
2023-09-08T15:39:15.441Z,38.90
2023-09-08T15:44:18.213Z,38.90
2023-09-08T15:49:21.956Z,38.70
2023-09-08T15:54:25.160Z,38.30
2023-09-08T15:59:27.187Z,38.10
2023-09-08T16:04:29.185Z,37.70
2023-09-08T16:09:31.193Z,37.40
2023-09-08T16:14:33.513Z,37.00
2023-09-08T16:19:36.442Z,36.70
2023-09-08T16:24:38.365Z,36.40
2023-09-08T16:29:40.462Z,35.90
2023-09-08T16:34:42.424Z,35.60
2023-09-08T16:39:45.961Z,35.20
2023-09-08T16:44:48.574Z,34.80
2023-09-08T16:49:50.532Z,34.30
2023-09-08T16:54:52.421Z,33.80
2023-09-08T16:59:54.290Z,33.40
2023-09-08T17:04:56.353Z,33.10
2023-09-08T17:09:58.456Z,32.90
2023-09-08T17:15:00.526Z,32.60
2023-09-08T17:20:03.722Z,32.30
2023-09-08T17:25:06.262Z,32.10
2023-09-08T17:30:10.204Z,31.80
2023-09-08T17:35:12.835Z,31.60
2023-09-08T17:40:16.858Z,31.30
2023-09-08T17:45:19.640Z,31.10
2023-09-08T17:50:21.562Z,30.90
2023-09-08T17:55:25.235Z,30.60
2023-09-08T18:00:27.257Z,30.40
2023-09-08T18:05:31.274Z,30.10
2023-09-08T18:10:33.178Z,29.90
2023-09-08T18:15:35.271Z,29.60
2023-09-08T18:20:37.230Z,29.40
2023-09-08T18:25:39.186Z,29.20
2023-09-08T18:30:45.153Z,29.00
2023-09-08T18:35:47.104Z,28.80
2023-09-08T18:40:49.012Z,28.60
2023-09-08T18:45:50.948Z,28.40
2023-09-08T18:50:52.920Z,28.20
2023-09-08T18:55:54.990Z,28.10
2023-09-08T19:00:57.341Z,27.90
2023-09-08T19:05:59.859Z,27.80
2023-09-08T19:11:01.821Z,27.70
2023-09-08T19:16:05.425Z,27.50
2023-09-08T19:21:07.273Z,27.40
2023-09-08T19:26:09.347Z,27.20
2023-09-08T19:31:30.752Z,27.10
2023-09-08T19:36:32.864Z,26.90
2023-09-08T19:41:34.920Z,26.80
2023-09-08T19:46:39.955Z,26.60
2023-09-08T19:51:41.966Z,26.50
